createdAt,value
2023-05-22T00:00:16.603Z,6.80
2023-05-22T00:02:44.119Z,8.40
2023-05-22T00:05:14.749Z,12.50
2023-05-22T00:07:45.971Z,16.00
2023-05-22T00:10:14.187Z,16.80
2023-05-22T00:12:40.953Z,23.30
2023-05-22T00:15:08.363Z,30.50
2023-05-22T00:17:35.392Z,31.70
2023-05-22T00:20:08.089Z,35.10
2023-05-22T00:22:35.485Z,40.10
2023-05-22T00:25:03.856Z,42.70
2023-05-22T00:27:30.628Z,46.60
2023-05-22T00:29:58.613Z,40.40
2023-05-22T00:32:26.590Z,36.10
2023-05-22T00:34:54.040Z,34.40
2023-05-22T00:37:20.821Z,29.20
2023-05-22T00:39:47.651Z,25.00
2023-05-22T00:42:14.442Z,26.20
2023-05-22T00:44:41.916Z,26.70
2023-05-22T00:47:09.384Z,29.40
2023-05-22T00:49:36.460Z,31.00
2023-05-22T00:52:03.651Z,28.10
2023-05-22T00:54:31.579Z,26.10
2023-05-22T00:57:00.524Z,28.60
2023-05-22T00:59:28.875Z,33.30
2023-05-22T01:01:57.163Z,37.00
2023-05-22T01:04:24.986Z,37.20
2023-05-22T01:06:53.651Z,36.20
2023-05-22T01:09:20.802Z,44.70
2023-05-22T01:12:17.526Z,51.60
2023-05-22T01:15:06.102Z,58.10
2023-05-22T01:17:53.038Z,64.00
2023-05-22T01:20:32.336Z,67.60
2023-05-22T01:23:21.034Z,82.10
2023-05-22T01:26:02.818Z,93.20
2023-05-22T01:29:07.420Z,94.70
2023-05-22T01:31:39.617Z,95.50
2023-05-22T01:34:10.459Z,98.70
2023-05-22T01:36:41.495Z,99.90
2023-05-22T01:39:09.029Z,99.90
2023-05-22T01:41:36.385Z,99.90
2023-05-22T01:44:03.631Z,99.90
2023-05-22T01:46:31.656Z,99.90
2023-05-22T01:48:59.091Z,99.90
2023-05-22T01:51:55.296Z,99.90
2023-05-22T01:54:42.162Z,99.90
2023-05-22T01:57:16.670Z,99.90
2023-05-22T01:59:49.580Z,97.30
2023-05-22T02:02:19.510Z,95.10
2023-05-22T02:05:02.826Z,93.40
2023-05-22T02:07:33.243Z,94.10
2023-05-22T02:10:01.295Z,95.60
2023-05-22T02:12:28.298Z,92.50
2023-05-22T02:14:55.508Z,91.40
2023-05-22T02:17:22.634Z,93.20
2023-05-22T02:19:49.381Z,94.80
2023-05-22T02:22:16.140Z,94.00
2023-05-22T02:24:46.814Z,94.80
2023-05-22T02:27:15.242Z,94.70
2023-05-22T02:29:41.950Z,89.40
2023-05-22T02:32:09.514Z,84.70
2023-05-22T02:34:37.849Z,80.80
2023-05-22T02:37:05.409Z,80.80
2023-05-22T02:39:32.538Z,90.80
2023-05-22T02:41:59.297Z,83.80
2023-05-22T02:44:26.088Z,92.30
2023-05-22T02:46:52.947Z,99.90
2023-05-22T02:49:20.583Z,93.00
2023-05-22T02:51:47.803Z,97.00
2023-05-22T02:54:16.015Z,96.40
2023-05-22T02:56:46.032Z,97.70
2023-05-22T02:59:12.815Z,99.90
2023-05-22T03:01:39.773Z,99.90
2023-05-22T03:04:06.904Z,99.90
2023-05-22T03:06:35.064Z,99.90
2023-05-22T03:09:03.991Z,99.90
2023-05-22T03:11:32.374Z,99.90
2023-05-22T03:13:59.214Z,99.90
2023-05-22T03:16:26.692Z,99.90
2023-05-22T03:19:11.052Z,99.90
2023-05-22T03:21:38.303Z,99.90
2023-05-22T03:24:05.901Z,99.90
2023-05-22T03:26:33.729Z,99.90
2023-05-22T03:29:03.268Z,99.90
2023-05-22T03:31:34.008Z,99.90
2023-05-22T03:34:10.830Z,99.90
2023-05-22T03:36:38.524Z,99.90
2023-05-22T03:39:06.370Z,99.90
2023-05-22T03:41:37.643Z,99.90
2023-05-22T03:44:06.197Z,99.90
2023-05-22T03:46:33.856Z,99.90
2023-05-22T03:49:02.256Z,99.90
2023-05-22T03:51:28.962Z,99.90
2023-05-22T03:53:55.684Z,99.90
2023-05-22T03:56:22.428Z,99.90
2023-05-22T03:58:50.173Z,99.90
2023-05-22T04:01:17.949Z,99.90
2023-05-22T04:03:44.785Z,99.90
2023-05-22T04:06:13.691Z,99.90
2023-05-22T04:08:40.711Z,99.90
2023-05-22T04:11:08.231Z,99.90
2023-05-22T04:13:35.066Z,99.90
2023-05-22T04:16:04.197Z,99.90
2023-05-22T04:18:31.152Z,99.90
2023-05-22T04:20:57.904Z,99.90
2023-05-22T04:23:24.640Z,99.90
2023-05-22T04:25:51.941Z,99.90
2023-05-22T04:28:22.353Z,99.90
2023-05-22T04:30:49.438Z,99.90
2023-05-22T04:33:18.151Z,99.90
2023-05-22T04:35:45.075Z,99.90
2023-05-22T04:38:11.766Z,99.90
2023-05-22T04:40:38.846Z,99.90
2023-05-22T04:43:06.140Z,99.90
2023-05-22T04:45:32.947Z,99.90
2023-05-22T04:48:02.592Z,99.90
2023-05-22T04:50:32.891Z,99.90
2023-05-22T04:53:00.284Z,98.60
2023-05-22T04:55:27.811Z,94.00
2023-05-22T04:57:56.323Z,93.60
2023-05-22T05:00:28.570Z,81.50
2023-05-22T05:02:57.133Z,96.60
2023-05-22T05:05:24.079Z,75.50
2023-05-22T05:07:51.839Z,80.70
2023-05-22T05:10:20.375Z,88.10
2023-05-22T05:12:47.261Z,77.40
2023-05-22T05:15:14.624Z,52.20
2023-05-22T05:17:41.598Z,39.80
2023-05-22T05:20:09.020Z,35.80
2023-05-22T05:22:36.050Z,33.90
2023-05-22T05:25:05.445Z,30.00
2023-05-22T05:27:32.675Z,26.80
2023-05-22T05:29:59.627Z,25.80
2023-05-22T05:32:36.699Z,25.00
2023-05-22T05:35:21.296Z,29.40
2023-05-22T05:38:02.701Z,42.80
2023-05-22T05:40:30.520Z,39.00
2023-05-22T05:42:57.360Z,13.60
2023-05-22T05:45:26.540Z,10.30
2023-05-22T05:47:53.386Z,9.30
2023-05-22T05:50:20.964Z,12.60
2023-05-22T05:52:48.140Z,6.00
2023-05-22T05:55:17.838Z,9.40
2023-05-22T05:57:44.810Z,15.80
2023-05-22T06:00:17.949Z,15.00
2023-05-22T06:02:50.580Z,11.70
2023-05-22T06:05:29.380Z,8.70
2023-05-22T06:08:06.215Z,6.30
2023-05-22T06:10:33.162Z,3.50
2023-05-22T06:13:12.424Z,1.00
2023-05-22T06:15:40.399Z,1.00
2023-05-22T06:18:07.477Z,2.50
2023-05-22T06:20:36.039Z,18.00
2023-05-22T06:23:03.025Z,2.50
2023-05-22T06:25:30.329Z,1.00
2023-05-22T06:27:57.976Z,1.00
2023-05-22T06:30:38.869Z,1.00
2023-05-22T06:33:10.885Z,1.00
2023-05-22T06:35:38.035Z,1.00
2023-05-22T06:38:05.662Z,1.00
2023-05-22T06:40:33.359Z,1.00
2023-05-22T06:43:08.997Z,1.00
2023-05-22T06:45:45.210Z,1.00
2023-05-22T06:48:36.061Z,1.00
2023-05-22T06:51:12.604Z,1.00
2023-05-22T06:53:41.154Z,1.00
2023-05-22T06:56:19.029Z,1.00
2023-05-22T06:58:54.406Z,1.00
2023-05-22T07:01:24.909Z,1.00
2023-05-22T07:04:04.998Z,1.00
2023-05-22T07:06:38.803Z,1.00
2023-05-22T07:09:06.603Z,1.00
2023-05-22T07:11:34.145Z,1.00
2023-05-22T07:14:01.914Z,1.00
2023-05-22T07:16:31.144Z,1.00
2023-05-22T07:18:58.115Z,1.00
2023-05-22T07:21:25.822Z,1.00
2023-05-22T07:23:53.475Z,1.00
2023-05-22T07:26:22.567Z,1.00
2023-05-22T07:28:59.127Z,1.00
2023-05-22T07:31:26.127Z,1.00
2023-05-22T07:33:54.884Z,1.00
2023-05-22T07:36:22.303Z,1.00
2023-05-22T07:38:49.202Z,1.00
2023-05-22T07:41:16.307Z,1.00
2023-05-22T07:43:43.107Z,1.00
2023-05-22T07:46:12.892Z,1.00
2023-05-22T07:48:50.319Z,1.00
2023-05-22T07:51:17.297Z,1.00
2023-05-22T07:53:45.830Z,1.00
2023-05-22T07:56:13.393Z,1.00
2023-05-22T07:58:40.969Z,1.00
2023-05-22T08:01:09.524Z,1.00
2023-05-22T08:03:36.615Z,1.00
2023-05-22T08:06:04.283Z,1.00
2023-05-22T08:08:32.082Z,1.00
2023-05-22T08:13:28.666Z,1.00
2023-05-22T08:16:00.170Z,1.00
2023-05-22T08:18:29.079Z,1.00
2023-05-22T08:20:56.374Z,1.00
2023-05-22T08:23:23.117Z,1.00
2023-05-22T08:25:50.212Z,1.00
2023-05-22T08:28:17.084Z,1.00
2023-05-22T08:30:44.052Z,1.00
2023-05-22T08:33:12.032Z,1.00
2023-05-22T08:35:39.241Z,1.00
2023-05-22T08:38:06.037Z,1.00
2023-05-22T08:40:37.368Z,1.00
2023-05-22T08:43:05.465Z,1.00
2023-05-22T08:45:35.465Z,1.00
2023-05-22T08:48:06.516Z,1.00
2023-05-22T08:50:37.922Z,1.00
2023-05-22T08:53:07.385Z,1.00
2023-05-22T08:55:34.795Z,1.00
2023-05-22T08:58:02.317Z,1.00
2023-05-22T09:00:29.748Z,1.00
2023-05-22T09:02:57.459Z,1.00
2023-05-22T09:05:26.712Z,1.00
2023-05-22T09:07:56.633Z,1.00
2023-05-22T09:10:25.561Z,1.00
2023-05-22T09:13:07.596Z,1.00
2023-05-22T09:15:35.302Z,1.00
2023-05-22T09:18:03.838Z,1.00
2023-05-22T09:20:34.358Z,1.00
2023-05-22T09:23:02.524Z,1.00
2023-05-22T09:25:29.323Z,1.00
2023-05-22T09:27:56.299Z,1.00
2023-05-22T09:30:23.154Z,1.00
2023-05-22T09:32:49.997Z,1.00
2023-05-22T09:35:18.557Z,1.00
2023-05-22T09:37:45.353Z,1.00
2023-05-22T09:40:16.192Z,1.00
2023-05-22T09:42:45.959Z,1.00
2023-05-22T09:45:13.169Z,1.00
2023-05-22T09:47:40.489Z,1.00
2023-05-22T09:50:10.269Z,1.00
2023-05-22T09:52:38.610Z,1.00
2023-05-22T09:55:07.060Z,1.00
2023-05-22T09:57:46.439Z,1.00
2023-05-22T10:00:18.328Z,1.00
2023-05-22T10:02:48.211Z,1.00
2023-05-22T10:05:21.634Z,1.00
2023-05-22T10:07:50.521Z,1.00
2023-05-22T10:10:21.152Z,1.00
2023-05-22T10:13:13.244Z,1.00
2023-05-22T10:15:41.091Z,1.00
2023-05-22T10:18:08.401Z,1.00
2023-05-22T10:20:35.704Z,1.00
2023-05-22T10:23:04.109Z,1.00
2023-05-22T10:25:30.929Z,1.00
2023-05-22T10:27:58.350Z,1.00
2023-05-22T10:30:40.720Z,1.00
2023-05-22T10:34:00.880Z,1.00
2023-05-22T10:36:54.432Z,1.00
2023-05-22T10:39:40.988Z,1.00
2023-05-22T10:42:15.684Z,1.00
2023-05-22T10:44:43.359Z,1.00
2023-05-22T10:47:13.082Z,1.00
2023-05-22T10:49:46.800Z,1.00
2023-05-22T10:52:18.450Z,1.00
2023-05-22T10:54:46.099Z,1.00
2023-05-22T10:57:17.282Z,1.00
2023-05-22T10:59:47.061Z,1.00
2023-05-22T11:02:32.127Z,1.00
2023-05-22T11:05:21.671Z,1.00
2023-05-22T11:07:49.398Z,1.00
2023-05-22T11:10:51.794Z,1.00
2023-05-22T11:13:18.666Z,1.00
2023-05-22T11:15:45.953Z,1.00
2023-05-22T11:18:16.796Z,1.00
2023-05-22T11:20:46.642Z,1.00
2023-05-22T11:23:13.585Z,1.00
2023-05-22T11:25:44.458Z,1.00
2023-05-22T11:28:12.299Z,1.00
2023-05-22T11:30:40.203Z,1.00
2023-05-22T11:33:07.226Z,1.00
2023-05-22T11:35:34.767Z,1.00
2023-05-22T11:38:06.155Z,1.00
2023-05-22T11:40:33.061Z,1.00
2023-05-22T11:42:59.909Z,1.00
2023-05-22T11:45:27.083Z,1.00
2023-05-22T11:47:53.935Z,1.00
2023-05-22T11:50:33.594Z,1.00
2023-05-22T11:53:08.306Z,1.00
2023-05-22T11:55:35.635Z,1.00
2023-05-22T11:58:02.860Z,1.00
2023-05-22T12:00:31.254Z,1.00
2023-05-22T12:02:58.762Z,1.00
2023-05-22T12:05:25.630Z,1.00
2023-05-22T12:07:52.805Z,1.00
2023-05-22T12:10:19.757Z,1.00
2023-05-22T12:12:48.067Z,1.00
2023-05-22T12:15:18.268Z,1.00
2023-05-22T12:17:45.004Z,1.00
2023-05-22T12:20:14.500Z,1.00
2023-05-22T12:22:43.047Z,1.00
2023-05-22T12:25:16.280Z,1.00
2023-05-22T12:27:45.442Z,1.00
2023-05-22T12:30:16.076Z,1.00
2023-05-22T12:32:50.738Z,1.00
2023-05-22T12:35:18.317Z,1.00
2023-05-22T12:37:52.109Z,1.00
2023-05-22T12:40:21.149Z,1.00
2023-05-22T12:42:48.654Z,1.00
2023-05-22T12:45:17.590Z,1.00
2023-05-22T12:47:44.475Z,1.00
2023-05-22T12:50:11.888Z,1.00
2023-05-22T12:52:38.772Z,1.00
2023-05-22T12:55:06.021Z,1.00
2023-05-22T12:57:32.700Z,1.00
2023-05-22T12:59:59.397Z,1.00
2023-05-22T13:02:26.197Z,1.00
2023-05-22T13:04:52.944Z,1.00
2023-05-22T13:07:19.651Z,1.00
2023-05-22T13:09:46.373Z,1.00
2023-05-22T13:12:14.081Z,1.00
2023-05-22T13:14:41.057Z,1.00
2023-05-22T13:17:08.006Z,1.00
2023-05-22T13:19:34.928Z,1.00
2023-05-22T13:22:02.802Z,1.00
2023-05-22T13:24:30.072Z,1.00
2023-05-22T13:26:56.799Z,1.00
2023-05-22T13:29:23.510Z,1.00
2023-05-22T13:31:50.266Z,1.00
2023-05-22T13:34:17.039Z,1.00
2023-05-22T13:36:44.992Z,1.00
2023-05-22T13:39:12.273Z,1.00
2023-05-22T13:41:39.054Z,1.00
2023-05-22T13:44:05.767Z,1.00
2023-05-22T13:46:32.567Z,1.00
2023-05-22T13:48:59.698Z,1.00
2023-05-22T13:51:26.521Z,1.00
2023-05-22T13:53:53.322Z,1.00
2023-05-22T13:56:20.799Z,1.00
2023-05-22T13:58:47.597Z,1.00
2023-05-22T14:01:14.423Z,1.00
2023-05-22T14:03:41.262Z,1.00
2023-05-22T14:06:08.071Z,1.00
2023-05-22T14:08:34.836Z,1.00
2023-05-22T14:11:02.223Z,1.00
2023-05-22T14:13:29.097Z,1.00
2023-05-22T14:15:55.901Z,1.00
2023-05-22T14:18:22.652Z,1.00
2023-05-22T14:20:49.381Z,1.00
2023-05-22T14:23:16.139Z,1.00
2023-05-22T14:25:43.373Z,1.00
2023-05-22T14:28:11.174Z,1.00
2023-05-22T14:30:38.782Z,1.00
2023-05-22T14:33:06.044Z,1.00
2023-05-22T14:35:32.943Z,1.00
2023-05-22T14:37:59.735Z,1.00
2023-05-22T14:40:26.530Z,1.00
2023-05-22T14:42:54.370Z,1.00
2023-05-22T14:45:21.689Z,1.00
2023-05-22T14:47:48.456Z,1.00
2023-05-22T14:50:19.550Z,1.00
2023-05-22T14:52:47.834Z,1.00
2023-05-22T14:55:15.030Z,1.00
2023-05-22T14:57:41.868Z,1.00
2023-05-22T15:00:10.019Z,1.00
2023-05-22T15:02:37.528Z,1.00
2023-05-22T15:05:04.774Z,1.00
2023-05-22T15:07:43.225Z,1.00
2023-05-22T15:10:13.414Z,1.00
2023-05-22T15:12:40.494Z,1.00
2023-05-22T15:15:07.761Z,1.00
2023-05-22T15:17:34.478Z,1.00
2023-05-22T15:20:02.528Z,1.00
2023-05-22T15:22:29.310Z,1.00
2023-05-22T15:25:07.584Z,1.00
2023-05-22T15:27:35.897Z,1.00
2023-05-22T15:30:04.343Z,1.00
2023-05-22T15:32:34.550Z,1.00
2023-05-22T15:35:02.310Z,1.00
2023-05-22T15:37:32.510Z,1.00
2023-05-22T15:40:02.482Z,39.20
2023-05-22T15:42:29.647Z,81.10
2023-05-22T15:44:58.251Z,99.90
2023-05-22T15:47:25.108Z,99.90
2023-05-22T15:49:54.453Z,99.90
2023-05-22T15:52:24.502Z,99.90
2023-05-22T15:54:55.040Z,99.90
2023-05-22T15:57:23.796Z,99.90
2023-05-22T15:59:50.983Z,99.90
2023-05-22T16:02:18.551Z,99.90
2023-05-22T16:04:45.479Z,99.90
2023-05-22T16:07:12.218Z,99.90
2023-05-22T16:09:38.908Z,99.90
2023-05-22T16:12:05.931Z,99.90
2023-05-22T16:14:32.701Z,99.90
2023-05-22T16:16:59.373Z,99.90
2023-05-22T16:19:28.255Z,99.90
2023-05-22T16:21:55.173Z,99.90
2023-05-22T16:24:21.923Z,99.90
2023-05-22T16:26:48.675Z,99.90
2023-05-22T16:29:17.701Z,99.90
2023-05-22T16:31:44.540Z,99.90
2023-05-22T16:34:11.467Z,99.90
2023-05-22T16:36:38.241Z,99.90
2023-05-22T16:39:04.937Z,99.90
2023-05-22T16:41:31.680Z,99.90
2023-05-22T16:43:58.460Z,99.90
2023-05-22T16:46:25.250Z,99.90
2023-05-22T16:48:52.073Z,99.90
2023-05-22T16:51:18.800Z,99.90
2023-05-22T16:53:46.687Z,99.90
2023-05-22T16:56:14.510Z,99.90
2023-05-22T16:58:41.294Z,99.90
2023-05-22T17:01:08.319Z,99.90
2023-05-22T17:03:35.171Z,99.90
2023-05-22T17:06:03.190Z,99.90
2023-05-22T17:08:30.225Z,99.90
2023-05-22T17:10:56.987Z,99.90
2023-05-22T17:13:23.778Z,99.90
2023-05-22T17:15:51.400Z,99.90
2023-05-22T17:18:22.105Z,99.90
2023-05-22T17:20:50.338Z,99.90
2023-05-22T17:23:17.371Z,99.90
2023-05-22T17:25:46.515Z,99.90
2023-05-22T17:28:14.422Z,99.90
2023-05-22T17:30:42.332Z,99.90
2023-05-22T17:33:10.292Z,99.90
2023-05-22T17:35:37.112Z,1.00
2023-05-22T17:38:03.805Z,1.00
2023-05-22T17:40:40.485Z,1.00
2023-05-22T17:43:10.420Z,1.00
2023-05-22T17:45:37.887Z,1.00
2023-05-22T17:48:06.274Z,1.00
2023-05-22T17:50:33.009Z,1.00
2023-05-22T17:53:00.156Z,1.00
2023-05-22T17:55:27.837Z,1.00
2023-05-22T17:57:55.806Z,1.00
2023-05-22T18:00:23.707Z,1.00
2023-05-22T18:02:51.134Z,1.00
2023-05-22T18:05:18.318Z,1.00
2023-05-22T18:07:45.857Z,1.00
2023-05-22T18:10:13.123Z,1.00
2023-05-22T18:12:39.862Z,1.00
2023-05-22T18:15:09.561Z,1.00
2023-05-22T18:17:36.406Z,1.00
2023-05-22T18:20:06.205Z,1.00
2023-05-22T18:22:32.936Z,1.00
2023-05-22T18:24:59.634Z,1.00
2023-05-22T18:27:26.451Z,1.00
2023-05-22T18:29:55.260Z,1.00
2023-05-22T18:32:22.812Z,1.00
2023-05-22T18:34:49.800Z,1.00
2023-05-22T18:37:16.640Z,1.00
2023-05-22T18:39:43.313Z,1.00
2023-05-22T18:42:10.073Z,1.00
2023-05-22T18:44:37.504Z,1.00
2023-05-22T18:47:04.467Z,1.00
2023-05-22T18:49:31.641Z,1.00
2023-05-22T18:51:58.621Z,1.00
2023-05-22T18:54:25.546Z,1.00
2023-05-22T18:56:52.357Z,1.00
2023-05-22T18:59:19.363Z,1.00
2023-05-22T19:01:47.034Z,1.00
2023-05-22T19:04:13.882Z,1.00
2023-05-22T19:06:42.020Z,1.00
2023-05-22T19:09:09.950Z,1.00
2023-05-22T19:11:36.778Z,1.00
2023-05-22T19:14:03.509Z,1.00
2023-05-22T19:16:30.468Z,1.00
2023-05-22T19:18:57.308Z,1.00
2023-05-22T19:21:24.478Z,1.00
2023-05-22T19:23:51.229Z,4.20
2023-05-22T19:26:17.969Z,52.70
2023-05-22T19:28:44.675Z,93.00
2023-05-22T19:31:11.426Z,99.90
2023-05-22T19:33:38.294Z,99.90
2023-05-22T19:36:06.656Z,99.90
2023-05-22T19:38:33.508Z,99.90
2023-05-22T19:41:00.473Z,99.90
2023-05-22T19:43:27.817Z,99.90
2023-05-22T19:45:55.449Z,99.90
2023-05-22T19:48:22.199Z,99.90
2023-05-22T19:50:48.914Z,99.90
2023-05-22T19:53:15.913Z,99.90
2023-05-22T19:55:42.650Z,99.90
2023-05-22T19:58:09.344Z,99.90
2023-05-22T20:00:37.456Z,99.90
2023-05-22T20:03:04.395Z,1.00
2023-05-22T20:05:31.415Z,1.00
2023-05-22T20:07:58.419Z,1.00
2023-05-22T20:10:25.811Z,1.00
2023-05-22T20:12:55.625Z,1.00
2023-05-22T20:15:23.947Z,1.00
2023-05-22T20:17:52.980Z,1.00
2023-05-22T20:20:25.662Z,1.00
2023-05-22T20:22:53.705Z,1.00
2023-05-22T20:25:21.446Z,1.00
2023-05-22T20:27:48.245Z,1.00
2023-05-22T20:30:15.009Z,1.00
2023-05-22T20:32:42.757Z,1.00
2023-05-22T20:35:10.888Z,1.00
2023-05-22T20:37:38.316Z,1.00
2023-05-22T20:40:06.008Z,1.00
2023-05-22T20:42:32.713Z,1.00
2023-05-22T20:44:59.421Z,1.00
2023-05-22T20:47:26.372Z,1.00
2023-05-22T20:49:53.101Z,1.00
2023-05-22T20:52:21.065Z,1.00
2023-05-22T20:54:47.947Z,12.00
2023-05-22T20:57:14.663Z,34.60
2023-05-22T20:59:41.372Z,81.20
2023-05-22T21:02:08.176Z,99.90
2023-05-22T21:04:34.857Z,99.90
2023-05-22T21:07:02.250Z,99.90
2023-05-22T21:09:28.941Z,99.90
2023-05-22T21:11:55.649Z,99.90
2023-05-22T21:14:25.858Z,99.90
2023-05-22T21:16:53.291Z,99.90
2023-05-22T21:19:20.037Z,99.90
2023-05-22T21:21:46.735Z,99.90
2023-05-22T21:24:13.505Z,99.90
2023-05-22T21:26:40.914Z,99.90
2023-05-22T21:29:07.778Z,99.90
2023-05-22T21:31:35.748Z,99.90
2023-05-22T21:34:03.068Z,99.90
2023-05-22T21:36:29.755Z,99.90
2023-05-22T21:38:57.690Z,99.90
2023-05-22T21:41:24.358Z,99.90
2023-05-22T21:43:51.218Z,1.00
2023-05-22T21:46:17.921Z,1.00
2023-05-22T21:48:44.644Z,1.00
2023-05-22T21:51:11.375Z,1.00
2023-05-22T21:53:38.135Z,1.00
2023-05-22T21:56:04.924Z,1.00
2023-05-22T21:58:31.688Z,1.00
2023-05-22T22:00:58.405Z,1.00
2023-05-22T22:03:25.310Z,1.00
2023-05-22T22:05:52.093Z,1.00
2023-05-22T22:08:18.784Z,1.00
2023-05-22T22:10:45.907Z,1.00
2023-05-22T22:13:12.621Z,1.00
2023-05-22T22:15:39.853Z,1.00
2023-05-22T22:18:06.730Z,1.00
2023-05-22T22:21:02.335Z,1.00
2023-05-22T22:23:29.480Z,99.90
2023-05-22T22:25:56.298Z,99.90
2023-05-22T22:28:23.282Z,99.90
2023-05-22T22:30:50.033Z,89.10
2023-05-22T22:33:16.781Z,20.10
2023-05-22T22:35:43.617Z,1.00
2023-05-22T22:38:10.514Z,1.00
2023-05-22T22:40:37.252Z,1.00
2023-05-22T22:43:03.902Z,1.00
2023-05-22T22:45:31.186Z,1.00
2023-05-22T22:47:58.198Z,1.00
2023-05-22T22:50:25.313Z,1.00
2023-05-22T22:52:52.143Z,99.90
2023-05-22T22:55:19.100Z,99.90
2023-05-22T22:57:47.769Z,99.90
2023-05-22T23:00:16.018Z,99.90
2023-05-22T23:02:43.117Z,99.90
2023-05-22T23:05:10.318Z,99.90
2023-05-22T23:07:37.255Z,99.90
2023-05-22T23:10:04.264Z,99.90
2023-05-22T23:12:35.050Z,99.90
2023-05-22T23:15:03.192Z,99.90
2023-05-22T23:17:30.199Z,99.90
2023-05-22T23:19:57.271Z,99.90
2023-05-22T23:22:24.100Z,99.90
2023-05-22T23:24:50.963Z,98.80
2023-05-22T23:27:17.882Z,99.90
2023-05-22T23:29:44.637Z,94.30
2023-05-22T23:32:13.062Z,99.70
2023-05-22T23:34:42.284Z,98.60
2023-05-22T23:37:09.861Z,99.90
2023-05-22T23:39:36.628Z,99.90
2023-05-22T23:42:03.519Z,99.90
2023-05-22T23:44:30.963Z,90.40
2023-05-22T23:46:57.875Z,21.20
2023-05-22T23:49:24.761Z,43.20
2023-05-22T23:51:51.731Z,64.80
2023-05-22T23:54:19.080Z,29.70
2023-05-22T23:56:46.027Z,6.30
2023-05-22T23:59:12.844Z,1.00
